createdAt,value
2024-01-06T00:01:01.724Z,992.3
2024-01-06T00:06:07.815Z,992.3
2024-01-06T00:11:13.909Z,992.3
2024-01-06T00:16:20.005Z,992.3
2024-01-06T00:21:26.104Z,992.4
2024-01-06T00:26:32.262Z,992.4
2024-01-06T00:31:38.307Z,992.5
2024-01-06T00:36:44.406Z,992.4
2024-01-06T00:41:50.502Z,992.5
2024-01-06T00:46:56.612Z,992.5
2024-01-06T00:52:01.699Z,992.5
2024-01-06T00:57:07.804Z,992.5
2024-01-06T01:02:13.923Z,992.4
2024-01-06T01:07:20.016Z,992.5
2024-01-06T01:12:26.170Z,992.6
2024-01-06T01:17:32.222Z,992.6
2024-01-06T01:22:38.314Z,992.6
2024-01-06T01:27:44.409Z,992.7
2024-01-06T01:32:50.499Z,992.7
2024-01-06T01:37:56.600Z,992.6
2024-01-06T01:43:02.693Z,992.7
2024-01-06T01:48:08.819Z,992.7
2024-01-06T01:53:14.897Z,992.8
2024-01-06T01:58:20.006Z,992.8
2024-01-06T02:03:26.115Z,992.8
2024-01-06T02:08:32.233Z,992.8
2024-01-06T02:13:38.309Z,992.9
2024-01-06T02:18:44.392Z,992.9
2024-01-06T02:23:50.502Z,992.9
2024-01-06T02:28:56.579Z,993
2024-01-06T02:34:02.696Z,993.2
2024-01-06T02:39:08.847Z,993.2
2024-01-06T02:44:14.887Z,993.3
2024-01-06T02:49:20.991Z,993.3
2024-01-06T02:54:27.077Z,993.3
2024-01-06T02:59:33.180Z,993.4
2024-01-06T03:04:38.288Z,993.4
2024-01-06T03:09:44.390Z,993.4
2024-01-06T03:14:50.481Z,993.3
2024-01-06T03:19:56.605Z,993.4
2024-01-06T03:25:02.712Z,993.5
2024-01-06T03:30:08.785Z,993.6
2024-01-06T03:35:14.885Z,993.5
2024-01-06T03:40:20.966Z,993.5
2024-01-06T03:45:27.071Z,993.7
2024-01-06T03:50:33.158Z,993.7
2024-01-06T03:55:39.263Z,993.7
2024-01-06T04:00:45.342Z,993.7
2024-01-06T04:05:51.460Z,993.7
2024-01-06T04:10:56.574Z,993.8
2024-01-06T04:16:02.674Z,993.8
2024-01-06T04:21:08.747Z,993.9
2024-01-06T04:26:14.860Z,994
2024-01-06T04:31:20.937Z,994
2024-01-06T04:36:27.025Z,994.1
2024-01-06T04:41:33.123Z,994
2024-01-06T04:46:39.233Z,994
2024-01-06T04:51:45.312Z,994
2024-01-06T04:56:51.406Z,994
2024-01-06T05:01:57.490Z,994.1
2024-01-06T05:07:03.591Z,994.1
2024-01-06T05:12:09.688Z,994
2024-01-06T05:17:14.787Z,994
2024-01-06T05:22:20.887Z,994
2024-01-06T05:27:26.969Z,994.1
2024-01-06T05:32:33.090Z,994.1
2024-01-06T05:37:39.153Z,994.2
2024-01-06T05:42:45.234Z,994.2
2024-01-06T05:47:51.317Z,994.1
2024-01-06T05:52:57.421Z,994.2
2024-01-06T05:58:03.491Z,994.3
2024-01-06T06:03:09.602Z,994.4
2024-01-06T06:08:15.680Z,994.6
2024-01-06T06:13:21.780Z,994.6
2024-01-06T06:18:27.891Z,994.7
2024-01-06T06:23:32.990Z,994.7
2024-01-06T06:28:39.076Z,994.7
2024-01-06T06:33:45.154Z,994.8
2024-01-06T06:38:51.269Z,994.9
2024-01-06T06:43:57.356Z,994.9
2024-01-06T06:49:03.458Z,995
2024-01-06T06:54:09.634Z,995.1
2024-01-06T06:59:15.624Z,995.1
2024-01-06T07:04:21.707Z,995.1
2024-01-06T07:09:27.809Z,995.3
2024-01-06T07:14:33.908Z,995.4
2024-01-06T07:19:39.995Z,995.5
2024-01-06T07:24:46.171Z,995.5
2024-01-06T07:29:51.219Z,995.5
2024-01-06T07:34:57.298Z,995.6
2024-01-06T07:40:03.402Z,995.7
2024-01-06T07:45:09.499Z,995.9
2024-01-06T07:50:15.587Z,996
2024-01-06T07:55:21.752Z,996.1
2024-01-06T08:00:27.783Z,996.1
2024-01-06T08:05:33.893Z,996.2
2024-01-06T08:10:40.005Z,996.3
2024-01-06T08:15:46.067Z,996.4
2024-01-06T08:20:52.359Z,996.4
2024-01-06T08:25:58.279Z,996.4
2024-01-06T08:36:10.642Z,996.5
2024-01-06T08:41:15.604Z,996.6
2024-01-06T08:46:21.695Z,996.7
2024-01-06T08:51:27.791Z,996.8
2024-01-06T08:56:33.889Z,997
2024-01-06T09:01:39.981Z,997
2024-01-06T09:06:46.087Z,997
2024-01-06T09:11:52.207Z,997.1
2024-01-06T09:16:58.286Z,997.1
2024-01-06T09:22:04.427Z,997.2
2024-01-06T09:27:10.469Z,997.2
2024-01-06T09:32:16.580Z,997.2
2024-01-06T09:37:22.681Z,997.2
2024-01-06T09:42:28.768Z,997.3
2024-01-06T09:47:33.894Z,997.3
2024-01-06T09:52:40.037Z,997.4
2024-01-06T09:57:46.096Z,997.3
2024-01-06T10:02:52.172Z,997.4
2024-01-06T10:07:58.329Z,997.4
2024-01-06T10:13:04.404Z,997.4
2024-01-06T10:18:10.505Z,997.5
2024-01-06T10:23:16.566Z,997.5
2024-01-06T10:28:22.644Z,997.6
2024-01-06T10:33:28.843Z,997.6
2024-01-06T10:38:34.837Z,997.6
2024-01-06T10:43:41.073Z,997.7
2024-01-06T10:48:47.042Z,997.7
2024-01-06T10:53:52.154Z,997.6
2024-01-06T10:58:58.292Z,997.6
2024-01-06T11:04:04.339Z,997.6
2024-01-06T11:09:10.431Z,997.6
2024-01-06T11:14:16.525Z,997.6
2024-01-06T11:19:22.638Z,997.5
2024-01-06T11:24:28.786Z,997.4
2024-01-06T11:29:34.820Z,997.5
2024-01-06T11:34:40.933Z,997.5
2024-01-06T11:39:47.016Z,997.4
2024-01-06T11:44:53.108Z,997.5
2024-01-06T11:49:59.218Z,997.5
2024-01-06T11:55:05.354Z,997.6
2024-01-06T12:00:10.431Z,997.6
2024-01-06T12:05:16.530Z,997.7
2024-01-06T12:10:22.626Z,997.7
2024-01-06T12:15:28.877Z,997.7
2024-01-06T12:20:34.803Z,997.7
2024-01-06T12:25:40.937Z,997.9
2024-01-06T12:30:47.005Z,998
2024-01-06T12:35:53.112Z,998.1
2024-01-06T12:40:59.187Z,998
2024-01-06T12:46:05.289Z,998
2024-01-06T12:51:11.402Z,998.1
2024-01-06T12:56:17.503Z,998.1
2024-01-06T13:01:23.588Z,998.1
2024-01-06T13:06:28.683Z,998.2
2024-01-06T13:11:34.782Z,998.2
2024-01-06T13:16:40.886Z,998.3
2024-01-06T13:21:46.972Z,998.4
2024-01-06T13:26:53.092Z,998.4
2024-01-06T13:31:59.170Z,998.5
2024-01-06T13:37:05.261Z,998.6
2024-01-06T13:42:11.362Z,998.7
2024-01-06T13:47:17.464Z,998.8
2024-01-06T13:52:23.545Z,998.9
2024-01-06T13:57:29.671Z,998.9
2024-01-06T14:02:35.735Z,999
2024-01-06T14:07:41.854Z,999
2024-01-06T14:12:46.962Z,999.1
2024-01-06T14:17:53.061Z,999
2024-01-06T14:22:59.164Z,999
2024-01-06T14:28:05.256Z,999
2024-01-06T14:33:11.355Z,999.1
2024-01-06T14:38:17.455Z,999.2
2024-01-06T14:43:23.562Z,999.2
2024-01-06T14:48:29.652Z,999.3
2024-01-06T14:53:35.766Z,999.3
2024-01-06T14:58:41.849Z,999.3
2024-01-06T15:03:47.953Z,999.4
2024-01-06T15:08:54.045Z,999.5
2024-01-06T15:14:00.182Z,999.4
2024-01-06T15:19:05.270Z,999.5
2024-01-06T15:24:11.385Z,999.6
2024-01-06T15:29:17.510Z,999.7
2024-01-06T15:34:23.575Z,999.7
2024-01-06T15:39:29.661Z,999.8
2024-01-06T15:44:35.760Z,999.9
2024-01-06T15:49:41.861Z,999.9
2024-01-06T15:54:47.953Z,1000.1
2024-01-06T15:59:54.045Z,1000.2
2024-01-06T16:05:00.135Z,1000.2
2024-01-06T16:10:06.242Z,1000.3
2024-01-06T16:15:12.333Z,1000.3
2024-01-06T16:20:18.437Z,1000.3
2024-01-06T16:25:23.554Z,1000.4
2024-01-06T16:30:29.656Z,1000.3
2024-01-06T16:35:35.757Z,1000.3
2024-01-06T16:40:41.844Z,1000.3
2024-01-06T16:45:47.939Z,1000.5
2024-01-06T16:50:53.062Z,1000.6
2024-01-06T16:55:59.260Z,1000.7
2024-01-06T17:01:05.270Z,1000.7
2024-01-06T17:06:11.347Z,1000.7
2024-01-06T17:11:17.444Z,1000.7
2024-01-06T17:16:23.650Z,1000.7
2024-01-06T17:21:29.650Z,1000.9
2024-01-06T17:26:35.745Z,1001
2024-01-06T17:31:41.955Z,1001
2024-01-06T17:36:47.936Z,1001
2024-01-06T17:41:54.079Z,1001.1
2024-01-06T17:47:00.140Z,1001.2
2024-01-06T17:52:06.346Z,1001.2
2024-01-06T17:57:11.381Z,1001.4
2024-01-06T18:02:17.560Z,1001.3
2024-01-06T18:07:23.537Z,1001.4
2024-01-06T18:12:29.656Z,1001.5
2024-01-06T18:17:35.733Z,1001.6
2024-01-06T18:22:41.875Z,1001.6
2024-01-06T18:27:47.949Z,1001.6
2024-01-06T18:32:54.035Z,1001.7
2024-01-06T18:38:00.129Z,1001.7
2024-01-06T18:43:06.221Z,1001.8
2024-01-06T18:48:12.326Z,1001.9
2024-01-06T18:53:18.412Z,1001.9
2024-01-06T18:58:24.516Z,1001.9
2024-01-06T19:03:29.639Z,1002.1
2024-01-06T19:08:35.719Z,1002.1
2024-01-06T19:13:41.849Z,1002.1
2024-01-06T19:18:47.898Z,1002.2
2024-01-06T19:23:54.037Z,1002.2
2024-01-06T19:29:00.123Z,1002.3
2024-01-06T19:34:06.210Z,1002.3
2024-01-06T19:39:12.312Z,1002.4
2024-01-06T19:44:18.395Z,1002.4
2024-01-06T19:49:24.508Z,1002.5
2024-01-06T19:54:30.611Z,1002.5
2024-01-06T19:59:36.699Z,1002.5
2024-01-06T20:04:42.803Z,1002.6
2024-01-06T20:09:47.973Z,1002.6
2024-01-06T20:14:54.013Z,1002.7
2024-01-06T20:20:00.114Z,1002.6
2024-01-06T20:25:06.252Z,1002.7
2024-01-06T20:30:12.307Z,1002.7
2024-01-06T20:35:18.397Z,1002.8
2024-01-06T20:40:24.559Z,1002.8
2024-01-06T20:45:30.592Z,1002.7
2024-01-06T20:50:36.693Z,1002.8
2024-01-06T20:55:42.776Z,1002.8
2024-01-06T21:00:48.997Z,1002.9
2024-01-06T21:05:54.995Z,1003
2024-01-06T21:11:01.079Z,1002.9
2024-01-06T21:16:06.306Z,1002.9
2024-01-06T21:21:12.284Z,1003
2024-01-06T21:26:18.398Z,1002.9
2024-01-06T21:31:24.456Z,1003
2024-01-06T21:36:30.557Z,1003
2024-01-06T21:41:36.660Z,1003.1
2024-01-06T21:46:42.814Z,1003.1
2024-01-06T21:51:48.833Z,1003
2024-01-06T21:56:54.935Z,1003.2
2024-01-06T22:02:01.040Z,1003.3
2024-01-06T22:07:07.166Z,1003.3
2024-01-06T22:12:13.244Z,1003.3
2024-01-06T22:17:19.410Z,1003.4
2024-01-06T22:22:24.444Z,1003.4
2024-01-06T22:27:30.519Z,1003.4
2024-01-06T22:32:36.663Z,1003.5
2024-01-06T22:37:42.717Z,1003.5
2024-01-06T22:42:48.805Z,1003.5
2024-01-06T22:47:54.989Z,1003.5
2024-01-06T22:53:01.061Z,1003.6
2024-01-06T22:58:07.086Z,1003.6
2024-01-06T23:03:13.177Z,1003.8
2024-01-06T23:08:19.353Z,1003.8
2024-01-06T23:13:25.378Z,1003.9
2024-01-06T23:18:31.476Z,1004
2024-01-06T23:23:37.613Z,1004.1
2024-01-06T23:28:42.655Z,1004
2024-01-06T23:33:48.757Z,1004.1
2024-01-06T23:38:54.838Z,1004.1
2024-01-06T23:44:00.952Z,1004.2
2024-01-06T23:49:07.032Z,1004.3
2024-01-06T23:54:13.127Z,1004.3
2024-01-06T23:59:19.205Z,1004.3
